Time;durP1;ratioP1;P1;durP2;ratioP2;P2;SDS_P1;SDS_P2;PMS_P1;PMS_P2;Temp;Humidity;BMP_temperature;BMP_pressure;BME280_temperature;BME280_humidity;BME280_pressure;Samples;Min_cycle;Max_cycle;Signal;HPM_P1;HPM_P2
2021/01/23 00:00:41;;;;;;;15.50;5.70;;;6.30;78.10;;;;;;5095797;28;20028;-60
2021/01/23 00:03:07;;;;;;;9.93;4.97;;;6.30;78.10;;;;;;5096227;28;20035;-60
2021/01/23 00:05:32;;;;;;;11.90;4.55;;;6.30;78.00;;;;;;5096506;28;20028;-60
2021/01/23 00:08:01;;;;;;;14.02;6.35;;;6.30;77.90;;;;;;5095520;28;20468;-60
2021/01/23 00:10:30;;;;;;;5.43;3.30;;;6.40;78.50;;;;;;5096188;28;20036;-60
2021/01/23 00:12:56;;;;;;;7.90;4.38;;;6.40;77.80;;;;;;5095602;28;20027;-60
2021/01/23 00:15:22;;;;;;;12.85;5.10;;;6.40;77.70;;;;;;5095842;28;20826;-60
2021/01/23 00:17:49;;;;;;;8.93;4.40;;;6.40;77.70;;;;;;5096166;28;20043;-60
2021/01/23 00:20:15;;;;;;;12.68;5.40;;;6.50;77.60;;;;;;5095255;28;20056;-60
2021/01/23 00:22:41;;;;;;;11.57;5.30;;;6.50;77.50;;;;;;5096091;28;20032;-60
2021/01/23 00:25:08;;;;;;;17.55;6.78;;;6.40;77.30;;;;;;5095946;28;20031;-60
2021/01/23 00:27:34;;;;;;;17.08;5.55;;;6.50;77.30;;;;;;5095004;28;20494;-60
2021/01/23 00:30:00;;;;;;;11.90;5.47;;;6.50;77.30;;;;;;5096010;28;20028;-60
2021/01/23 00:32:26;;;;;;;13.55;5.15;;;6.50;77.10;;;;;;5095658;28;20395;-60
2021/01/23 00:34:52;;;;;;;12.77;4.50;;;6.50;77.10;;;;;;5095027;28;20078;-60
2021/01/23 00:37:17;;;;;;;10.00;5.43;;;6.50;77.00;;;;;;5095678;28;20089;-60
2021/01/23 00:39:43;;;;;;;13.23;5.85;;;6.50;76.90;;;;;;5095475;28;20032;-60
2021/01/23 00:42:09;;;;;;;11.32;4.75;;;6.40;76.90;;;;;;5094801;28;20077;-60
2021/01/23 00:44:35;;;;;;;13.57;6.28;;;6.40;77.00;;;;;;5093989;28;20024;-60
2021/01/23 00:47:01;;;;;;;14.07;5.57;;;6.40;77.00;;;;;;5095383;28;20075;-60
2021/01/23 00:49:26;;;;;;;8.02;4.80;;;6.40;77.00;;;;;;5094681;28;20433;-61
2021/01/23 00:51:52;;;;;;;13.05;5.40;;;6.50;77.00;;;;;;5093909;28;20092;-60
2021/01/23 00:54:18;;;;;;;4.28;2.58;;;6.40;76.90;;;;;;5095628;28;20092;-60
2021/01/23 00:56:44;;;;;;;13.07;6.65;;;6.40;76.80;;;;;;5094520;28;20113;-60
2021/01/23 00:59:10;;;;;;;14.68;6.25;;;6.40;76.70;;;;;;5095261;28;20821;-60
2021/01/23 01:01:35;;;;;;;12.25;5.82;;;6.40;76.80;;;;;;5093848;28;20020;-60
2021/01/23 01:04:02;;;;;;;16.65;7.60;;;6.40;76.80;;;;;;5093189;28;20059;-60
2021/01/23 01:06:28;;;;;;;18.90;7.45;;;6.40;76.90;;;;;;5095088;28;20035;-60
2021/01/23 01:08:54;;;;;;;11.65;5.20;;;6.40;76.90;;;;;;5094787;28;20020;-60
2021/01/23 01:11:19;;;;;;;19.38;7.10;;;6.40;77.00;;;;;;5094504;28;20040;-60
2021/01/23 01:13:45;;;;;;;13.73;6.32;;;6.40;76.90;;;;;;5094830;28;20024;-60
2021/01/23 01:16:11;;;;;;;18.67;7.10;;;6.50;76.90;;;;;;5094156;28;20032;-60
2021/01/23 01:18:36;;;;;;;17.80;7.30;;;6.40;76.90;;;;;;5094712;28;20028;-60
2021/01/23 01:21:02;;;;;;;15.43;6.70;;;6.40;76.90;;;;;;5094798;28;20024;-60
2021/01/23 01:23:28;;;;;;;16.58;7.82;;;6.40;76.80;;;;;;5094423;28;20024;-60
2021/01/23 01:25:53;;;;;;;15.80;6.93;;;6.50;77.00;;;;;;5094840;28;20024;-60
2021/01/23 01:28:19;;;;;;;14.60;7.80;;;6.40;76.80;;;;;;5095114;28;20391;-60
2021/01/23 01:30:44;;;;;;;14.25;7.55;;;6.40;76.70;;;;;;5093832;28;20460;-60
2021/01/23 01:33:10;;;;;;;18.08;7.10;;;6.50;76.80;;;;;;5094615;28;20028;-60
2021/01/23 01:35:36;;;;;;;17.98;7.05;;;6.40;76.60;;;;;;5094202;28;20358;-60
2021/01/23 01:38:02;;;;;;;18.45;6.60;;;6.50;76.70;;;;;;5093909;28;20020;-60
2021/01/23 01:40:28;;;;;;;19.88;7.05;;;6.50;76.60;;;;;;5094744;28;20043;-60
2021/01/23 01:42:56;;;;;;;17.50;7.72;;;6.50;76.50;;;;;;5094380;28;20020;-60
2021/01/23 01:45:22;;;;;;;22.08;7.07;;;6.50;76.50;;;;;;5093806;28;20186;-60
2021/01/23 01:47:48;;;;;;;13.10;6.00;;;6.50;76.50;;;;;;5094213;28;20475;-60
2021/01/23 01:50:14;;;;;;;12.40;6.57;;;6.50;76.50;;;;;;5094223;28;20036;-60
2021/01/23 01:52:43;;;;;;;17.50;7.68;;;6.40;76.40;;;;;;5093801;28;20024;-60
2021/01/23 01:55:11;;;;;;;14.40;7.38;;;6.50;76.50;;;;;;5094448;28;20031;-60
2021/01/23 01:57:36;;;;;;;14.90;6.75;;;6.50;76.40;;;;;;5094169;28;20040;-60
2021/01/23 02:00:04;;;;;;;12.82;7.10;;;6.40;76.40;;;;;;5107607;28;20073;-60
2021/01/23 02:02:53;;;;;;;17.98;7.82;;;6.40;76.40;;;;;;5094119;28;20109;-60
2021/01/23 02:05:29;;;;;;;16.95;8.00;;;6.40;76.30;;;;;;5094097;28;20020;-60
2021/01/23 02:08:24;;;;;;;17.50;8.02;;;6.40;76.30;;;;;;5093952;28;20036;-60
2021/01/23 02:11:08;;;;;;;20.52;9.13;;;6.40;76.30;;;;;;5093967;28;20503;-60
2021/01/23 02:13:40;;;;;;;24.05;8.73;;;6.40;76.20;;;;;;5093008;28;20020;-60
2021/01/23 02:16:18;;;;;;;19.95;7.40;;;6.40;76.20;;;;;;5093889;28;20568;-61
2021/01/23 02:19:05;;;;;;;16.33;7.65;;;6.40;76.20;;;;;;5092973;28;20528;-60
2021/01/23 02:21:45;;;;;;;13.38;7.05;;;6.40;76.20;;;;;;5092954;28;20071;-60
2021/01/23 02:24:14;;;;;;;17.02;7.93;;;6.30;76.80;;;;;;5093833;28;20106;-60
2021/01/23 02:26:46;;;;;;;18.85;8.93;;;6.30;76.00;;;;;;5091712;28;20032;-60
2021/01/23 02:29:18;;;;;;;21.98;9.45;;;6.30;76.10;;;;;;5093552;28;20035;-60
2021/01/23 02:31:58;;;;;;;22.27;9.45;;;6.30;76.10;;;;;;5093564;28;20024;-60
2021/01/23 02:34:26;;;;;;;19.80;9.65;;;6.30;76.10;;;;;;5092988;28;20107;-60
2021/01/23 02:36:53;;;;;;;18.52;9.63;;;6.30;76.00;;;;;;5093631;28;20048;-60
2021/01/23 02:39:20;;;;;;;22.05;10.55;;;6.20;76.00;;;;;;5093161;28;20032;-60
2021/01/23 02:41:47;;;;;;;16.50;8.07;;;6.30;76.10;;;;;;5092692;28;20036;-60
2021/01/23 02:44:13;;;;;;;18.08;7.97;;;6.20;76.00;;;;;;5093154;28;20028;-60
2021/01/23 02:46:39;;;;;;;17.23;8.77;;;6.20;76.10;;;;;;5093637;28;20036;-60
2021/01/23 02:49:05;;;;;;;26.00;9.63;;;6.20;76.10;;;;;;5092753;28;20031;-60
2021/01/23 02:51:49;;;;;;;15.60;8.75;;;6.20;76.00;;;;;;5092780;28;20047;-60
2021/01/23 02:54:20;;;;;;;15.90;8.13;;;6.20;76.00;;;;;;5093196;28;20506;-60
2021/01/23 02:56:46;;;;;;;21.23;9.43;;;6.20;75.90;;;;;;5092222;28;20048;-60
2021/01/23 02:59:14;;;;;;;21.40;8.85;;;6.20;76.00;;;;;;5093049;28;20499;-60
2021/01/23 03:01:42;;;;;;;17.35;7.50;;;6.20;76.00;;;;;;5092271;28;20047;-60
2021/01/23 03:04:09;;;;;;;20.77;9.18;;;6.20;76.10;;;;;;5093288;28;20028;-60
2021/01/23 03:06:37;;;;;;;18.40;8.30;;;6.20;76.10;;;;;;5092984;28;20115;-60
2021/01/23 03:09:23;;;;;;;21.88;8.98;;;6.10;76.00;;;;;;5092278;28;20024;-60
2021/01/23 03:11:50;;;;;;;22.40;9.43;;;6.20;76.00;;;;;;5093064;28;20035;-60
2021/01/23 03:14:16;;;;;;;19.33;7.95;;;6.20;76.00;;;;;;5093055;28;20037;-60
2021/01/23 03:16:54;;;;;;;21.55;10.07;;;6.20;75.90;;;;;;5091926;28;20377;-60
2021/01/23 03:19:20;;;;;;;18.63;8.50;;;6.10;75.90;;;;;;5092958;28;20028;-60
2021/01/23 03:21:48;;;;;;;19.42;9.15;;;6.20;75.90;;;;;;5092722;28;20077;-60
2021/01/23 03:24:18;;;;;;;20.25;10.15;;;6.10;75.90;;;;;;5092184;28;20028;-60
2021/01/23 03:26:44;;;;;;;21.35;9.43;;;6.10;75.90;;;;;;5091378;28;20024;-60
2021/01/23 03:29:10;;;;;;;27.60;10.70;;;6.10;75.90;;;;;;5097313;28;20115;-60
2021/01/23 03:31:36;;;;;;;17.52;8.80;;;6.20;75.90;;;;;;5104929;28;20447;-60
2021/01/23 03:34:02;;;;;;;21.50;8.68;;;6.20;75.90;;;;;;5096774;28;20506;-60
2021/01/23 03:36:28;;;;;;;19.67;10.20;;;6.10;75.80;;;;;;5096878;28;20047;-60
2021/01/23 03:38:54;;;;;;;18.45;8.85;;;6.10;75.70;;;;;;5096060;28;20110;-60
2021/01/23 03:41:20;;;;;;;18.88;8.82;;;6.10;75.80;;;;;;5097041;28;20043;-60
2021/01/23 03:43:46;;;;;;;19.25;9.15;;;6.10;75.80;;;;;;5096919;28;20028;-60
2021/01/23 03:46:12;;;;;;;15.32;8.52;;;6.00;75.80;;;;;;5095881;28;20028;-60
2021/01/23 03:48:38;;;;;;;23.85;11.02;;;6.00;75.80;;;;;;5096770;28;20028;-60
2021/01/23 03:51:05;;;;;;;17.05;8.00;;;6.00;75.80;;;;;;5095632;28;20059;-60
2021/01/23 03:53:31;;;;;;;18.73;9.23;;;6.00;75.80;;;;;;5102669;28;20093;-60
2021/01/23 03:55:58;;;;;;;18.95;9.32;;;6.00;75.80;;;;;;5096503;28;20491;-61
2021/01/23 03:58:23;;;;;;;14.52;7.18;;;6.00;75.90;;;;;;5101661;28;20050;-60
2021/01/23 04:00:49;;;;;;;20.20;9.60;;;6.00;75.90;;;;;;5114980;28;20035;-60
2021/01/23 04:03:15;;;;;;;17.58;8.63;;;6.00;75.90;;;;;;5104224;28;20049;-60
2021/01/23 04:05:40;;;;;;;14.60;8.38;;;6.00;75.90;;;;;;5102332;28;20035;-60
2021/01/23 04:08:07;;;;;;;24.20;10.88;;;6.00;75.90;;;;;;5096168;28;20078;-60
2021/01/23 04:10:34;;;;;;;17.92;8.60;;;6.00;76.00;;;;;;5096320;28;20064;-60
2021/01/23 04:13:00;;;;;;;29.98;11.18;;;6.00;75.90;;;;;;5109486;28;20066;-60
2021/01/23 04:15:26;;;;;;;18.27;7.35;;;5.90;75.90;;;;;;5096256;28;20081;-60
2021/01/23 04:17:52;;;;;;;20.27;9.88;;;5.90;76.00;;;;;;5096019;28;20061;-62
2021/01/23 04:20:17;;;;;;;22.90;11.25;;;5.90;76.00;;;;;;5095320;28;20551;-63
2021/01/23 04:22:43;;;;;;;24.00;11.48;;;5.90;76.00;;;;;;5096299;28;20563;-62
2021/01/23 04:25:09;;;;;;;17.02;9.23;;;5.90;76.00;;;;;;5095867;28;20032;-62
2021/01/23 04:27:35;;;;;;;25.23;10.95;;;5.90;76.20;;;;;;5095106;28;20042;-62
2021/01/23 04:30:03;;;;;;;22.88;11.43;;;5.90;76.20;;;;;;5110118;28;20028;-62
2021/01/23 04:32:29;;;;;;;20.80;11.23;;;5.80;76.20;;;;;;5095759;28;20028;-62
2021/01/23 04:34:54;;;;;;;26.23;11.18;;;5.80;76.30;;;;;;5095232;28;20380;-62
2021/01/23 04:37:20;;;;;;;25.45;11.38;;;5.80;76.30;;;;;;5095529;28;20036;-60
2021/01/23 04:39:46;;;;;;;20.88;9.80;;;5.80;76.40;;;;;;5095973;28;20028;-59
2021/01/23 04:42:11;;;;;;;20.05;11.32;;;5.80;76.50;;;;;;5093960;28;20032;-60
2021/01/23 04:44:39;;;;;;;27.50;11.63;;;5.80;76.60;;;;;;5095528;28;20416;-60
2021/01/23 04:47:05;;;;;;;17.95;10.85;;;5.70;76.70;;;;;;5095317;28;20414;-60
2021/01/23 04:49:32;;;;;;;21.77;12.65;;;5.70;76.70;;;;;;5095082;28;20024;-60
2021/01/23 04:52:02;;;;;;;28.63;12.10;;;5.70;76.90;;;;;;5095132;28;20056;-60
2021/01/23 04:54:29;;;;;;;21.70;10.10;;;5.60;77.00;;;;;;5094969;28;20755;-60
2021/01/23 04:56:54;;;;;;;22.15;10.55;;;5.60;77.10;;;;;;5095246;28;20040;-60
2021/01/23 04:59:20;;;;;;;15.77;8.38;;;5.60;77.10;;;;;;5095321;28;20032;-60
2021/01/23 05:02:14;;;;;;;22.05;11.73;;;5.60;77.20;;;;;;5094593;28;20028;-60
2021/01/23 05:04:59;;;;;;;;;;;5.60;77.30;;;;;;5095609;28;20475;-60
2021/01/23 05:07:36;;;;;;;14.27;8.20;;;5.60;77.20;;;;;;5095240;28;19915;-61
2021/01/23 05:10:27;;;;;;;15.32;8.68;;;5.60;77.20;;;;;;5094463;28;20032;-60
2021/01/23 05:12:56;;;;;;;17.27;10.43;;;5.50;77.40;;;;;;5094886;28;20027;-60
2021/01/23 05:15:26;;;;;;;22.27;10.25;;;5.50;77.80;;;;;;5094271;28;20028;-60
2021/01/23 05:17:53;;;;;;;22.73;8.02;;;5.50;77.70;;;;;;5094781;28;20044;-60
2021/01/23 05:20:37;;;;;;;22.63;11.88;;;5.50;77.80;;;;;;5095059;28;20036;-60
2021/01/23 05:23:13;;;;;;;13.55;7.18;;;5.50;78.10;;;;;;5094120;28;20463;-60
2021/01/23 05:25:40;;;;;;;18.45;8.70;;;5.40;78.00;;;;;;5095032;28;20039;-59
2021/01/23 05:28:06;;;;;;;27.20;12.60;;;5.40;78.10;;;;;;5094753;28;20043;-60
2021/01/23 05:30:46;;;;;;;21.60;10.52;;;5.50;78.20;;;;;;5094036;28;20112;-60
2021/01/23 05:33:17;;;;;;;22.70;10.60;;;5.50;78.30;;;;;;5094504;28;20476;-60
2021/01/23 05:35:44;;;;;;;20.90;9.50;;;5.50;78.30;;;;;;5094824;28;20020;-60
2021/01/23 05:38:18;;;;;;;11.55;6.07;;;5.40;78.40;;;;;;5093873;28;20073;-60
2021/01/23 05:40:44;;;;;;;17.58;8.57;;;5.40;78.40;;;;;;5094693;28;20039;-60
2021/01/23 05:43:10;;;;;;;21.67;8.10;;;5.50;78.40;;;;;;5094299;28;20020;-60
2021/01/23 05:45:35;;;;;;;10.57;6.18;;;5.40;78.40;;;;;;5093611;28;20036;-60
2021/01/23 05:48:11;;;;;;;17.27;9.27;;;5.50;78.40;;;;;;5094134;28;20055;-59
2021/01/23 05:50:36;;;;;;;26.25;10.93;;;5.50;78.50;;;;;;5093588;28;20408;-60
2021/01/23 05:53:02;;;;;;;15.25;7.78;;;5.50;78.50;;;;;;5094444;28;20026;-60
2021/01/23 05:55:28;;;;;;;22.23;12.73;;;5.50;78.40;;;;;;5094127;28;20044;-60
2021/01/23 05:57:54;;;;;;;15.57;7.95;;;5.50;78.50;;;;;;5093479;28;20055;-60
2021/01/23 06:00:24;;;;;;;19.88;7.55;;;5.50;78.50;;;;;;5093951;28;20414;-60
2021/01/23 06:02:50;;;;;;;19.20;8.07;;;5.60;78.50;;;;;;5100757;28;20118;-59
2021/01/23 06:05:17;;;;;;;12.50;7.22;;;5.60;78.40;;;;;;5100976;27;20028;-60
2021/01/23 06:07:47;;;;;;;16.23;8.50;;;5.60;78.50;;;;;;5093937;28;20026;-60
2021/01/23 06:10:21;;;;;;;22.60;10.77;;;5.60;78.50;;;;;;5094151;28;20059;-60
2021/01/23 06:12:48;;;;;;;19.45;9.93;;;5.60;78.50;;;;;;5093075;28;20059;-60
2021/01/23 06:15:32;;;;;;;20.02;10.45;;;5.60;78.50;;;;;;5094180;28;20111;-60
2021/01/23 06:17:58;;;;;;;22.08;8.63;;;5.70;78.60;;;;;;5093851;28;20028;-60
2021/01/23 06:20:47;;;;;;;15.25;4.03;;;5.70;78.50;;;;;;5093217;28;20036;-60
2021/01/23 06:23:21;;;;;;;22.10;9.63;;;5.70;78.50;;;;;;5093660;28;20050;-60
2021/01/23 06:25:50;;;;;;;15.85;8.50;;;5.70;78.40;;;;;;5093171;28;20090;-60
2021/01/23 06:28:21;;;;;;;12.93;5.72;;;5.80;78.40;;;;;;5093348;28;20553;-59
2021/01/23 06:30:48;;;;;;;18.35;10.20;;;5.80;78.30;;;;;;5093747;28;20065;-59
2021/01/23 06:33:22;;;;;;;25.35;9.43;;;5.80;78.30;;;;;;5095245;28;20032;-60
2021/01/23 06:36:11;;;;;;;11.23;6.63;;;5.80;78.40;;;;;;5111246;28;20046;-61
2021/01/23 06:38:37;;;;;;;12.80;5.55;;;5.80;78.30;;;;;;5100083;28;20583;-61
2021/01/23 06:41:33;;;;;;;8.02;4.40;;;5.80;78.10;;;;;;5111447;28;20049;-62
2021/01/23 06:44:19;;;;;;;8.32;4.05;;;5.80;78.20;;;;;;5102566;28;20028;-60
2021/01/23 06:46:48;;;;;;;14.48;6.90;;;5.80;78.10;;;;;;5103322;28;20080;-60
2021/01/23 06:49:14;;;;;;;18.83;7.57;;;5.80;78.10;;;;;;5110612;28;20019;-59
2021/01/23 06:51:41;;;;;;;9.10;5.25;;;5.90;78.20;;;;;;5100941;28;20071;-60
2021/01/23 06:54:14;;;;;;;13.80;6.90;;;5.80;78.00;;;;;;5111663;28;20027;-61
2021/01/23 06:56:49;;;;;;;11.15;5.63;;;5.90;77.90;;;;;;5111106;28;20500;-60
2021/01/23 06:59:28;;;;;;;9.90;4.80;;;5.90;77.80;;;;;;5111973;28;20016;-60
2021/01/23 07:01:59;;;;;;;8.18;3.72;;;5.90;77.70;;;;;;5109358;28;20027;-61
2021/01/23 07:04:26;;;;;;;6.30;2.45;;;5.90;77.60;;;;;;5107958;28;20444;-61
2021/01/23 07:06:54;;;;;;;3.88;1.92;;;5.90;77.30;;;;;;5110464;28;20019;-61
2021/01/23 07:09:20;;;;;;;16.15;8.65;;;5.90;77.20;;;;;;5108882;28;20462;-60
2021/01/23 07:11:45;;;;;;;21.08;8.18;;;5.90;77.20;;;;;;5111752;28;20033;-61
2021/01/23 07:14:11;;;;;;;9.65;4.18;;;5.80;77.30;;;;;;5107000;28;20032;-60
2021/01/23 07:16:39;;;;;;;10.93;5.40;;;5.90;77.30;;;;;;5109401;28;20387;-60
2021/01/23 07:19:07;;;;;;;15.95;8.10;;;5.90;77.70;;;;;;5107541;28;20110;-60
2021/01/23 07:21:39;;;;;;;11.13;6.63;;;5.90;77.20;;;;;;5109324;28;20048;-60
2021/01/23 07:24:09;;;;;;;13.05;5.78;;;5.90;77.20;;;;;;5110663;28;20024;-60
2021/01/23 07:26:34;;;;;;;8.73;3.08;;;5.90;77.00;;;;;;5110664;28;20024;-60
2021/01/23 07:29:00;;;;;;;13.43;6.38;;;5.90;76.90;;;;;;5111417;28;20031;-60
2021/01/23 07:31:28;;;;;;;16.10;8.52;;;5.90;77.50;;;;;;5110485;28;20493;-60
2021/01/23 07:33:55;;;;;;;4.22;3.20;;;6.00;77.10;;;;;;5111991;28;20418;-60
2021/01/23 07:36:38;;;;;;;9.90;4.75;;;6.00;76.80;;;;;;5109031;28;20031;-60
2021/01/23 07:39:13;;;;;;;8.65;5.03;;;5.90;76.80;;;;;;5111560;28;20027;-60
2021/01/23 07:42:05;;;;;;;10.82;4.15;;;5.90;76.70;;;;;;5108255;28;20487;-60
2021/01/23 07:44:31;;;;;;;15.27;8.60;;;5.90;76.80;;;;;;5097290;28;20093;-61
2021/01/23 07:47:00;;;;;;;5.88;4.18;;;5.90;76.80;;;;;;5096204;28;20468;-60
2021/01/23 07:49:27;;;;;;;13.82;5.18;;;5.90;76.90;;;;;;5097529;28;20036;-60
2021/01/23 07:52:09;;;;;;;3.75;2.80;;;5.90;76.80;;;;;;5096647;28;20094;-60
2021/01/23 07:54:55;;;;;;;4.10;3.03;;;5.90;77.00;;;;;;5097798;28;20032;-60
2021/01/23 07:57:21;;;;;;;11.90;4.80;;;5.90;77.00;;;;;;5094822;28;20055;-61
2021/01/23 07:59:47;;;;;;;8.20;4.55;;;5.90;76.90;;;;;;5105361;28;20401;-61
2021/01/23 08:02:16;;;;;;;8.70;5.32;;;5.90;76.90;;;;;;5092884;28;20036;-66
2021/01/23 08:04:53;;;;;;;8.98;5.72;;;6.00;77.00;;;;;;5091735;28;20029;-68
2021/01/23 08:07:30;;;;;;;12.80;5.95;;;6.00;77.00;;;;;;5092195;28;20040;-64
2021/01/23 08:10:12;;;;;;;13.80;6.90;;;6.00;76.90;;;;;;5092546;28;20031;-60
2021/01/23 08:12:40;;;;;;;9.75;4.03;;;6.00;77.00;;;;;;5096210;28;20031;-59
2021/01/23 08:15:08;;;;;;;15.27;6.55;;;6.00;76.90;;;;;;5108818;28;20100;-60
2021/01/23 08:17:39;;;;;;;5.13;2.92;;;6.00;77.10;;;;;;5108755;28;20040;-60
2021/01/23 08:20:07;;;;;;;13.63;7.25;;;6.00;77.10;;;;;;5114565;27;20425;-61
2021/01/23 08:22:33;;;;;;;9.63;5.45;;;6.00;77.00;;;;;;5113801;28;20475;-60
2021/01/23 08:24:58;;;;;;;10.23;6.88;;;6.10;77.20;;;;;;5112519;28;20035;-60
2021/01/23 08:27:26;;;;;;;14.10;4.60;;;6.10;77.20;;;;;;5113337;28;20043;-60
2021/01/23 08:29:52;;;;;;;8.18;4.53;;;6.10;77.10;;;;;;5111861;28;20076;-60
2021/01/23 08:32:18;;;;;;;8.77;5.20;;;6.10;76.90;;;;;;5113144;28;20027;-61
2021/01/23 08:34:45;;;;;;;5.65;2.72;;;6.10;76.90;;;;;;5111999;28;20020;-60
2021/01/23 08:37:11;;;;;;;13.50;3.97;;;6.10;76.90;;;;;;5113951;28;20367;-65
2021/01/23 08:39:44;;;;;;;4.88;3.00;;;6.10;76.90;;;;;;5112014;28;20028;-61
2021/01/23 08:42:10;;;;;;;10.77;5.57;;;6.10;77.10;;;;;;5102193;28;20034;-61
2021/01/23 08:44:36;;;;;;;14.02;7.15;;;6.10;77.20;;;;;;5104521;28;20027;-60
2021/01/23 08:47:03;;;;;;;10.40;5.40;;;6.10;77.20;;;;;;5098385;28;20537;-60
2021/01/23 08:49:29;;;;;;;13.75;4.20;;;6.10;77.30;;;;;;5108943;28;20035;-60
2021/01/23 08:51:55;;;;;;;7.97;4.40;;;6.10;77.20;;;;;;5100228;28;20054;-60
2021/01/23 08:54:21;;;;;;;8.05;4.40;;;6.10;77.40;;;;;;5096918;28;20032;-60
2021/01/23 08:56:47;;;;;;;3.10;2.03;;;6.10;77.60;;;;;;5099207;28;20501;-60
2021/01/23 08:59:13;;;;;;;13.52;7.63;;;6.00;77.60;;;;;;5109419;28;20020;-60
2021/01/23 09:01:39;;;;;;;11.25;5.60;;;6.10;77.80;;;;;;5113125;27;20383;-61
2021/01/23 09:04:05;;;;;;;8.55;4.80;;;6.10;77.90;;;;;;5114491;28;20028;-60
2021/01/23 09:06:30;;;;;;;10.65;4.63;;;6.00;78.00;;;;;;5112415;28;20020;-60
2021/01/23 09:08:56;;;;;;;7.78;4.43;;;6.00;78.20;;;;;;5111390;28;20459;-61
2021/01/23 09:11:22;;;;;;;5.65;3.03;;;6.00;78.50;;;;;;5107780;28;20032;-60
2021/01/23 09:13:48;;;;;;;4.93;2.97;;;5.90;78.60;;;;;;5112385;28;20051;-60
2021/01/23 09:16:13;;;;;;;6.38;3.65;;;5.90;78.90;;;;;;5111203;27;20078;-60
2021/01/23 09:18:39;;;;;;;6.13;3.85;;;5.90;79.00;;;;;;5112802;28;20027;-60
2021/01/23 09:21:05;;;;;;;11.65;5.40;;;5.90;79.10;;;;;;5109039;28;20604;-60
2021/01/23 09:23:31;;;;;;;9.20;4.80;;;5.90;79.30;;;;;;5112659;28;20024;-60
2021/01/23 09:25:56;;;;;;;4.90;3.53;;;5.90;79.50;;;;;;5113568;28;20016;-60
2021/01/23 09:28:25;;;;;;;13.98;6.30;;;5.90;79.70;;;;;;5107969;28;20043;-62
2021/01/23 09:30:51;;;;;;;2.75;2.17;;;5.90;79.90;;;;;;5111246;28;20024;-61
2021/01/23 09:33:16;;;;;;;7.85;4.22;;;5.90;79.90;;;;;;5110109;27;20413;-62
2021/01/23 09:35:42;;;;;;;8.07;3.47;;;5.90;80.00;;;;;;5111028;28;20062;-62
2021/01/23 09:38:08;;;;;;;4.90;2.45;;;6.00;80.20;;;;;;5111600;28;20035;-62
2021/01/23 09:40:34;;;;;;;11.65;4.45;;;5.90;80.20;;;;;;5111320;28;20039;-61
2021/01/23 09:43:00;;;;;;;4.60;3.05;;;5.90;80.40;;;;;;5110944;28;20027;-61
2021/01/23 09:45:25;;;;;;;12.23;4.60;;;5.90;80.50;;;;;;5112030;28;20016;-62
2021/01/23 09:47:51;;;;;;;4.05;2.50;;;5.90;80.60;;;;;;5113195;28;20168;-61
2021/01/23 09:50:21;;;;;;;7.93;3.75;;;5.90;80.80;;;;;;5107024;28;20048;-61
2021/01/23 09:52:47;;;;;;;6.45;4.38;;;5.90;80.90;;;;;;5110715;28;20023;-61
2021/01/23 09:55:13;;;;;;;7.22;3.90;;;5.90;81.00;;;;;;5111062;28;20028;-61
2021/01/23 09:57:39;;;;;;;10.35;5.55;;;5.90;81.30;;;;;;5110880;28;20498;-64
2021/01/23 10:00:06;;;;;;;4.55;2.92;;;5.90;81.50;;;;;;5111076;28;20027;-62
2021/01/23 10:02:37;;;;;;;9.05;5.43;;;5.90;81.70;;;;;;5112366;28;20114;-63
2021/01/23 10:05:04;;;;;;;11.02;5.28;;;5.90;81.90;;;;;;5106693;27;20427;-62
2021/01/23 10:07:30;;;;;;;2.58;2.08;;;5.90;82.20;;;;;;5109395;28;20119;-62
2021/01/23 10:09:56;;;;;;;11.32;6.50;;;5.90;82.60;;;;;;5113707;28;20103;-62
2021/01/23 10:12:21;;;;;;;8.90;4.15;;;5.90;82.80;;;;;;5109375;28;20364;-62
2021/01/23 10:14:47;;;;;;;10.90;4.78;;;5.90;83.00;;;;;;5110334;28;20428;-62
2021/01/23 10:17:14;;;;;;;7.97;3.38;;;5.90;83.10;;;;;;5111501;28;20100;-62
2021/01/23 10:19:41;;;;;;;6.78;4.00;;;5.90;83.30;;;;;;5110070;27;20028;-62
2021/01/23 10:22:06;;;;;;;7.40;4.40;;;5.90;83.40;;;;;;5112358;28;20039;-61
2021/01/23 10:24:32;;;;;;;11.45;5.75;;;5.90;83.70;;;;;;5111797;28;20084;-62
2021/01/23 10:26:58;;;;;;;5.97;4.50;;;5.90;83.80;;;;;;5112173;28;20356;-62
2021/01/23 10:29:24;;;;;;;14.10;4.90;;;5.90;83.90;;;;;;5110409;28;20417;-62
2021/01/23 10:31:49;;;;;;;1.35;1.25;;;5.90;84.10;;;;;;5110340;28;20526;-62
2021/01/23 10:34:16;;;;;;;6.65;4.28;;;5.90;84.10;;;;;;5108844;28;20360;-62
2021/01/23 10:36:41;;;;;;;8.35;5.00;;;6.00;84.20;;;;;;5099385;28;20035;-62
2021/01/23 10:39:07;;;;;;;7.78;4.88;;;6.00;84.30;;;;;;5100763;28;20039;-62
2021/01/23 10:41:33;;;;;;;10.30;4.47;;;6.00;84.20;;;;;;5109180;28;20527;-62
2021/01/23 10:43:58;;;;;;;10.68;2.42;;;6.00;84.30;;;;;;5109697;28;20019;-62
2021/01/23 10:46:24;;;;;;;7.65;5.68;;;6.10;84.30;;;;;;5109905;28;20387;-62
2021/01/23 10:48:50;;;;;;;7.88;4.68;;;6.10;84.30;;;;;;5101000;28;20042;-62
2021/01/23 10:51:15;;;;;;;11.13;4.63;;;6.10;84.40;;;;;;5106533;28;20415;-62
2021/01/23 10:53:41;;;;;;;6.68;3.60;;;6.10;84.40;;;;;;5110717;28;20027;-62
2021/01/23 10:56:07;;;;;;;7.35;3.88;;;6.20;84.40;;;;;;5111841;28;20431;-62
2021/01/23 10:58:33;;;;;;;9.05;3.72;;;6.20;84.40;;;;;;5107972;28;20048;-61
2021/01/23 11:00:59;;;;;;;8.98;4.45;;;6.20;84.40;;;;;;5099181;28;20028;-61
2021/01/23 11:03:24;;;;;;;3.75;2.55;;;6.20;84.40;;;;;;5111770;28;20119;-62
2021/01/23 11:05:51;;;;;;;5.90;3.35;;;6.30;84.40;;;;;;5097587;27;20035;-62
2021/01/23 11:08:17;;;;;;;8.38;4.05;;;6.30;84.30;;;;;;5097074;28;20088;-62
2021/01/23 11:10:43;;;;;;;4.50;2.33;;;6.30;84.20;;;;;;5110005;28;20110;-62
2021/01/23 11:13:09;;;;;;;5.40;2.92;;;6.30;84.10;;;;;;5105953;28;20028;-62
2021/01/23 11:15:34;;;;;;;8.70;4.03;;;6.40;84.20;;;;;;5105583;28;20031;-62
2021/01/23 11:18:00;;;;;;;6.88;4.22;;;6.40;84.20;;;;;;5100369;28;20383;-62
2021/01/23 11:20:26;;;;;;;3.95;2.80;;;6.40;84.20;;;;;;5097200;28;20433;-62
2021/01/23 11:22:51;;;;;;;5.45;3.08;;;6.40;84.20;;;;;;5101745;28;20113;-62
2021/01/23 11:25:17;;;;;;;12.45;4.20;;;6.40;84.00;;;;;;5102349;28;20020;-62
2021/01/23 11:27:43;;;;;;;5.63;3.70;;;6.50;84.00;;;;;;5108188;28;20023;-62
2021/01/23 11:30:10;;;;;;;6.10;3.20;;;6.60;84.00;;;;;;5107060;28;20032;-62
2021/01/23 11:32:37;;;;;;;3.97;2.85;;;6.60;83.90;;;;;;5108756;28;20039;-62
2021/01/23 11:35:04;;;;;;;4.68;3.50;;;6.60;83.90;;;;;;5108949;28;20023;-62
2021/01/23 11:37:30;;;;;;;8.32;4.55;;;6.60;83.90;;;;;;5110805;28;20039;-62
2021/01/23 11:39:56;;;;;;;7.95;3.75;;;6.60;83.80;;;;;;5111113;28;20035;-62
2021/01/23 11:42:21;;;;;;;3.38;2.85;;;6.70;83.90;;;;;;5108503;28;20027;-62
2021/01/23 11:44:47;;;;;;;4.97;2.53;;;6.70;83.90;;;;;;5108506;28;20020;-62
2021/01/23 11:47:13;;;;;;;7.85;2.35;;;6.70;83.90;;;;;;5109110;28;20106;-61
2021/01/23 11:49:38;;;;;;;6.65;4.47;;;6.70;83.90;;;;;;5108223;28;20020;-61
2021/01/23 11:52:04;;;;;;;9.57;3.85;;;6.70;84.00;;;;;;5108798;28;20040;-61
2021/01/23 11:54:33;;;;;;;1.95;1.65;;;6.70;84.10;;;;;;5113816;28;20020;-62
2021/01/23 11:56:59;;;;;;;2.17;1.98;;;6.70;84.20;;;;;;5112581;28;20035;-62
2021/01/23 11:59:24;;;;;;;7.40;3.70;;;6.60;84.20;;;;;;5114800;28;20031;-61
2021/01/23 12:01:50;;;;;;;4.57;3.05;;;6.70;84.30;;;;;;5113222;28;20031;-61
2021/01/23 12:04:18;;;;;;;3.63;2.78;;;6.70;84.30;;;;;;5111521;28;20486;-61
2021/01/23 12:06:44;;;;;;;6.22;3.33;;;6.60;84.30;;;;;;5114315;28;20082;-62
2021/01/23 12:09:10;;;;;;;3.92;2.55;;;6.60;84.50;;;;;;5114224;28;20398;-63
2021/01/23 12:11:35;;;;;;;6.70;3.83;;;6.60;84.70;;;;;;5114272;28;20127;-61
2021/01/23 12:14:01;;;;;;;7.57;2.42;;;6.60;84.80;;;;;;5111837;28;20023;-62
2021/01/23 12:16:27;;;;;;;3.17;2.53;;;6.60;84.90;;;;;;5111253;28;20123;-61
2021/01/23 12:18:52;;;;;;;4.13;2.75;;;6.60;85.00;;;;;;5108072;28;20058;-62
2021/01/23 12:21:18;;;;;;;6.13;2.80;;;6.50;85.00;;;;;;5113880;28;20037;-61
2021/01/23 12:23:44;;;;;;;2.83;1.70;;;6.50;85.00;;;;;;5109666;28;20517;-62
2021/01/23 12:26:10;;;;;;;2.40;1.95;;;6.60;85.10;;;;;;5106276;28;20537;-61
2021/01/23 12:28:35;;;;;;;2.58;1.88;;;6.60;85.10;;;;;;5109564;28;20051;-61
2021/01/23 12:31:01;;;;;;;4.63;2.63;;;6.70;85.10;;;;;;5113239;28;20019;-60
2021/01/23 12:33:26;;;;;;;3.80;2.67;;;6.70;84.90;;;;;;5112430;28;20103;-62
2021/01/23 12:35:52;;;;;;;4.68;2.45;;;6.70;84.90;;;;;;5114178;28;20053;-61
2021/01/23 12:38:19;;;;;;;4.13;2.67;;;6.70;84.80;;;;;;5114172;28;20068;-61
2021/01/23 12:40:44;;;;;;;6.90;3.00;;;6.70;84.80;;;;;;5114807;28;20015;-62
2021/01/23 12:43:10;;;;;;;1.75;1.58;;;6.70;84.70;;;;;;5107967;28;20513;-62
2021/01/23 12:45:36;;;;;;;1.75;1.15;;;6.70;84.70;;;;;;5107149;28;20023;-61
2021/01/23 12:48:02;;;;;;;7.28;2.83;;;6.70;84.80;;;;;;5109780;28;20034;-61
2021/01/23 12:50:28;;;;;;;2.33;1.70;;;6.70;84.90;;;;;;5105470;28;20193;-62
2021/01/23 12:52:54;;;;;;;3.25;1.88;;;6.80;85.00;;;;;;5109644;28;20071;-61
2021/01/23 12:55:19;;;;;;;0.68;0.68;;;6.80;85.00;;;;;;5105632;28;20047;-62